首页
METAR-TAF:

METAR-TAF

机场 :

本-古里安国际机场

特拉维夫 / 本·古里安, 以色列

纬度: 32-00N, 经度: 034-54E, 海拔: 40米

当前天气观测

该预报发布于18分钟前的02:20 UTC
风速4节,风向东北
温度 21°C
湿度 73%
气压 1013 hPa
能见度10公里或以上
1500米以下无云,无积雨云

METAR: LLBG 220220Z 04004KT CAVOK 21/16 Q1013 NOSIG RMK SCT130

时间: 05:38 (02:38 UTC)

预报

该预报发布于3小时和13分钟前的23:25 UTC
预报有效从22日的 00点(UTC)到 22日的 24点(UTC)
风速4节,风向
能见度10公里或以上
1500米以下无云,无积雨云
几率 30%
从 22日的 04点(UTC)到 22日的 09点(UTC)
风速10节,风向东转东南
成为
从 22日的 10点(UTC)到 22日的 12点(UTC)
风速7节,风向北转西北
成为
从 22日的 16点(UTC)到 22日的 18点(UTC)
风速5节,风向东南

TAF: LLBG 212325Z 2200/2224 08004KT CAVOK PROB30 2204/2209 12010KT BECMG 2210/2212 34007KT BECMG 2216/2218 13005KT TX34/2211Z TN20/2204Z

超过4000个机场的气象观测和天气预报(METAR&TAF报告)。

可查询的气象台以黄色和红色小点在地图上表示。

将鼠标移到小点上方,可查看气象台名称。

然后点击查看天气观测和预报。

如需切换地图:点击带黑十字的绿色按钮放大地图;点击带横线的绿色按钮缩小地图;或者点击绿色箭头查看邻近地区的地图。


METAR-TAF: